Flight Track Log - Related Links

Times and Time Zones

All times are in EDT time to prevent confusion due to time zone crossing. See the FLG3617 flight status page for this flight to view local times or setup timezone preferences in your user account.

Time Position Orientation Groundspeed Altitude Reporting Facility
EDT Latitude Longitude Course Direction KTS MPH feet Rate Location/Type
Wed 02:02:58 PM 42.1994 -83.3581 North 155 178 1,500  Level Cleveland Center
Wed 02:04:17 PM 42.1975 -83.4392 268° West 213 245 4,000 1,119 Climbing Cleveland Center
Wed 02:05:12 PM 42.2019 -83.5153 275° West 275 316 4,000  Level Cleveland Center
Wed 02:06:00 PM 42.4947 -83.3500 North  Level FlightAware Approximate
Wed 02:06:13 PM 42.2714 -83.5633 333° Northwest 256 295 4,000  Level Cleveland Center
Wed 02:07:00 PM 42.5683 -83.3500 North  Level FlightAware Approximate
Wed 02:07:14 PM 42.3333 -83.5914 341° North 250 288 4,000  Level Cleveland Center
Wed 02:08:00 PM 42.6420 -83.3500 North  Level FlightAware Approximate
Wed 02:08:21 PM 42.4106 -83.5894 North 254 292 4,000  Level Cleveland Center
Wed 02:09:17 PM 42.4756 -83.5672 14° North 259 298 4,000 513 Level Cleveland Center
Wed 02:10:18 PM 42.5475 -83.5342 19° North 271 312 5,000 984 Climbing Cleveland Center
Wed 02:12:00 PM 42.6637 -83.5975 338° Northwest  Level Estimated
Wed 02:19:00 PM 43.1419 -83.8609 338° Northwest  Level Estimated
Wed 02:20:00 PM 43.2102 -83.8989 338° Northwest  Level Estimated
Wed 02:21:00 PM 43.2784 -83.9370 338° Northwest  Level Estimated
Wed 02:22:00 PM 43.3467 -83.9751 338° Northwest  Level Estimated
Wed 02:23:00 PM 43.4149 -84.0133 338° Northwest  Level Estimated
Wed 02:24:00 PM 43.4831 -84.0516 338° Northwest  Level Estimated
Wed 02:25:00 PM 43.5329 -84.0796 338° Northwest  Level Estimated
Wed 02:26:00 PM 43.5329 -84.0796 166° South  Level Estimated
Wed 02:27:00 PM 43.5329 -84.0796 166° South  Level Estimated
Wed 02:28:00 PM 43.5329 -84.0796 166° South  Level Estimated
Wed 02:29:00 PM 43.5329 -84.0796 166° South  Level Estimated
Wed 02:30:00 PM 43.5329 -84.0796 166° South  Level Estimated
Wed 02:31:00 PM 43.5329 -84.0796 166° South  Level Estimated

Login

Don't have an account? Register now (free) for customized features, flight alerts, and more!